createdAt,value
2023-05-14T00:01:58.554Z,13.70
2023-05-14T00:04:26.759Z,13.70
2023-05-14T00:06:54.888Z,13.70
2023-05-14T00:09:24.315Z,13.60
2023-05-14T00:11:52.581Z,13.60
2023-05-14T00:14:21.014Z,13.60
2023-05-14T00:16:49.092Z,13.60
2023-05-14T00:19:17.242Z,13.60
2023-05-14T00:21:45.362Z,13.60
2023-05-14T00:24:13.493Z,13.60
2023-05-14T00:26:42.944Z,13.50
2023-05-14T00:29:11.122Z,13.50
2023-05-14T00:31:39.251Z,13.40
2023-05-14T00:34:07.352Z,13.40
2023-05-14T00:36:35.411Z,13.40
2023-05-14T00:39:03.767Z,13.30
2023-05-14T00:41:31.857Z,13.30
2023-05-14T00:44:01.305Z,13.30
2023-05-14T00:46:29.660Z,13.30
2023-05-14T00:48:58.345Z,13.30
2023-05-14T00:51:26.797Z,13.30
2023-05-14T00:53:55.116Z,13.30
2023-05-14T00:56:23.462Z,13.20
2023-05-14T00:58:52.720Z,13.30
2023-05-14T01:01:22.335Z,13.30
2023-05-14T01:03:53.448Z,13.20
2023-05-14T01:06:30.145Z,13.20
2023-05-14T01:09:17.076Z,13.20
2023-05-14T01:11:56.619Z,13.20
2023-05-14T01:14:32.248Z,13.20
2023-05-14T01:17:06.168Z,13.20
2023-05-14T01:19:40.678Z,13.20
2023-05-14T01:22:10.356Z,13.20
2023-05-14T01:24:38.601Z,13.10
2023-05-14T01:27:18.533Z,13.10
2023-05-14T01:29:54.358Z,13.10
2023-05-14T01:32:25.692Z,13.10
2023-05-14T01:34:54.499Z,13.10
2023-05-14T01:37:24.727Z,13.00
2023-05-14T01:39:54.282Z,13.00
2023-05-14T01:42:22.606Z,13.00
2023-05-14T01:44:50.936Z,13.00
2023-05-14T01:47:19.022Z,12.90
2023-05-14T01:49:47.105Z,12.90
2023-05-14T01:52:15.300Z,12.90
2023-05-14T01:54:44.780Z,12.90
2023-05-14T01:57:12.889Z,13.00
2023-05-14T01:59:41.004Z,13.00
2023-05-14T02:02:09.142Z,13.00
2023-05-14T02:04:37.263Z,13.00
2023-05-14T02:07:05.593Z,13.00
2023-05-14T02:09:33.787Z,13.00
2023-05-14T02:12:03.263Z,13.00
2023-05-14T02:14:31.457Z,13.00
2023-05-14T02:16:59.676Z,13.00
2023-05-14T02:19:27.786Z,13.00
2023-05-14T02:21:55.858Z,13.00
2023-05-14T02:24:24.127Z,13.00
2023-05-14T02:26:52.195Z,13.00
2023-05-14T02:29:21.687Z,13.00
2023-05-14T02:31:49.916Z,12.90
2023-05-14T02:34:18.221Z,13.00
2023-05-14T02:36:46.378Z,12.90
2023-05-14T02:39:14.486Z,12.90
2023-05-14T02:41:42.565Z,12.90
2023-05-14T02:44:10.627Z,12.90
2023-05-14T02:46:40.236Z,12.90
2023-05-14T02:49:08.628Z,12.90
2023-05-14T02:51:36.763Z,12.80
2023-05-14T02:54:04.973Z,12.90
2023-05-14T02:56:33.052Z,12.80
2023-05-14T02:59:02.088Z,12.80
2023-05-14T03:01:30.662Z,12.80
2023-05-14T03:04:00.566Z,12.80
2023-05-14T03:06:28.705Z,12.80
2023-05-14T03:08:56.818Z,12.80
2023-05-14T03:11:25.011Z,12.70
2023-05-14T03:13:53.093Z,12.70
2023-05-14T03:16:21.219Z,12.70
2023-05-14T03:18:49.366Z,12.70
2023-05-14T03:21:18.934Z,12.60
2023-05-14T03:23:47.093Z,12.60
2023-05-14T03:26:15.242Z,12.60
2023-05-14T03:28:43.398Z,12.60
2023-05-14T03:31:11.652Z,12.60
2023-05-14T03:33:39.863Z,12.60
2023-05-14T03:36:08.132Z,12.60
2023-05-14T03:38:37.774Z,12.60
2023-05-14T03:41:05.877Z,12.50
2023-05-14T03:43:34.344Z,12.50
2023-05-14T03:46:02.433Z,12.50
2023-05-14T03:48:30.646Z,12.40
2023-05-14T03:50:58.969Z,12.50
2023-05-14T03:53:27.043Z,12.50
2023-05-14T03:55:56.803Z,12.40
2023-05-14T03:58:24.884Z,12.40
2023-05-14T04:00:53.081Z,12.40
2023-05-14T04:03:21.284Z,12.40
2023-05-14T04:05:49.516Z,12.40
2023-05-14T04:08:17.621Z,12.40
2023-05-14T04:10:45.737Z,12.40
2023-05-14T04:13:15.180Z,12.40
2023-05-14T04:15:43.285Z,12.40
2023-05-14T04:18:11.477Z,12.40
2023-05-14T04:20:40.513Z,12.40
2023-05-14T04:23:08.588Z,12.50
2023-05-14T04:25:36.869Z,12.50
2023-05-14T04:28:05.189Z,12.60
2023-05-14T04:30:34.650Z,12.60
2023-05-14T04:33:02.894Z,12.70
2023-05-14T04:35:31.071Z,12.80
2023-05-14T04:37:59.280Z,12.80
2023-05-14T04:40:27.575Z,12.90
2023-05-14T04:42:55.697Z,13.00
2023-05-14T04:45:23.808Z,13.10
2023-05-14T04:47:53.297Z,13.20
2023-05-14T04:50:21.941Z,13.30
2023-05-14T04:52:50.610Z,13.30
2023-05-14T04:55:18.689Z,13.30
2023-05-14T04:57:46.756Z,13.40
2023-05-14T05:00:15.761Z,13.40
2023-05-14T05:02:43.997Z,13.50
2023-05-14T05:05:13.498Z,13.50
2023-05-14T05:07:41.608Z,13.60
2023-05-14T05:10:10.573Z,13.70
2023-05-14T05:12:38.960Z,13.70
2023-05-14T05:15:09.428Z,13.80
2023-05-14T05:17:38.039Z,13.90
2023-05-14T05:20:09.637Z,14.00
2023-05-14T05:22:39.221Z,14.00
2023-05-14T05:25:09.100Z,14.10
2023-05-14T05:27:37.275Z,14.20
2023-05-14T05:30:06.453Z,14.30
2023-05-14T05:32:34.605Z,14.40
2023-05-14T05:35:05.212Z,14.40
2023-05-14T05:37:33.413Z,14.40
2023-05-14T05:40:02.894Z,14.50
2023-05-14T05:42:31.030Z,14.50
2023-05-14T05:44:59.109Z,14.50
2023-05-14T05:47:27.234Z,14.60
2023-05-14T05:49:55.311Z,14.60
2023-05-14T05:52:23.452Z,14.60
2023-05-14T05:54:51.557Z,14.70
2023-05-14T05:57:23.643Z,14.70
2023-05-14T05:59:53.129Z,14.80
2023-05-14T06:02:21.691Z,14.90
2023-05-14T06:04:49.983Z,15.00
2023-05-14T06:07:18.102Z,15.20
2023-05-14T06:09:46.146Z,15.40
2023-05-14T06:12:14.251Z,15.50
2023-05-14T06:14:43.808Z,15.60
2023-05-14T06:17:11.941Z,15.70
2023-05-14T06:19:40.057Z,15.80
2023-05-14T06:22:08.142Z,16.00
2023-05-14T06:24:36.638Z,16.10
2023-05-14T06:27:04.832Z,16.20
2023-05-14T06:29:32.933Z,16.30
2023-05-14T06:32:05.538Z,16.40
2023-05-14T06:34:34.258Z,16.50
2023-05-14T06:37:04.185Z,16.60
2023-05-14T06:39:32.358Z,16.70
2023-05-14T06:42:00.447Z,16.80
2023-05-14T06:44:28.886Z,16.80
2023-05-14T06:46:57.185Z,16.80
2023-05-14T06:49:26.595Z,16.90
2023-05-14T06:51:54.687Z,16.90
2023-05-14T06:54:22.766Z,17.00
2023-05-14T06:56:50.853Z,17.00
2023-05-14T06:59:19.042Z,17.10
2023-05-14T07:01:47.201Z,17.10
2023-05-14T07:04:15.462Z,17.20
2023-05-14T07:06:44.970Z,17.30
2023-05-14T07:09:13.314Z,17.40
2023-05-14T07:11:41.637Z,17.50
2023-05-14T07:14:09.736Z,17.60
2023-05-14T07:16:38.306Z,17.70
2023-05-14T07:19:06.422Z,17.80
2023-05-14T07:21:34.482Z,17.90
2023-05-14T07:24:03.936Z,18.00
2023-05-14T07:26:32.397Z,18.10
2023-05-14T07:29:00.545Z,18.20
2023-05-14T07:31:28.964Z,18.30
2023-05-14T07:33:57.486Z,18.50
2023-05-14T07:36:26.362Z,18.60
2023-05-14T07:38:54.553Z,18.80
2023-05-14T07:41:23.986Z,19.00
2023-05-14T07:43:52.081Z,19.10
2023-05-14T07:46:20.177Z,19.30
2023-05-14T07:48:48.282Z,19.50
2023-05-14T07:51:16.359Z,19.60
2023-05-14T07:53:44.490Z,19.70
2023-05-14T07:56:12.635Z,19.80
2023-05-14T07:58:42.345Z,19.90
2023-05-14T08:01:10.415Z,19.90
2023-05-14T08:03:38.586Z,20.00
2023-05-14T08:06:07.082Z,20.10
2023-05-14T08:08:35.211Z,20.20
2023-05-14T08:11:04.009Z,20.30
2023-05-14T08:13:32.165Z,20.40
2023-05-14T08:16:01.627Z,20.40
2023-05-14T08:18:29.736Z,20.40
2023-05-14T08:20:57.972Z,20.50
2023-05-14T08:23:26.638Z,20.60
2023-05-14T08:25:54.720Z,20.60
2023-05-14T08:28:22.853Z,20.70
2023-05-14T08:30:51.539Z,20.80
2023-05-14T08:33:21.102Z,20.90
2023-05-14T08:35:49.180Z,21.00
2023-05-14T08:38:17.272Z,21.10
2023-05-14T08:40:49.561Z,21.30
2023-05-14T08:43:25.797Z,21.30
2023-05-14T08:45:59.870Z,21.50
2023-05-14T08:48:33.492Z,21.60
2023-05-14T08:51:02.986Z,21.70
2023-05-14T08:53:32.278Z,21.90
2023-05-14T08:56:02.459Z,22.10
2023-05-14T08:58:30.605Z,22.20
2023-05-14T09:00:58.747Z,22.30
2023-05-14T09:03:27.374Z,22.30
2023-05-14T09:05:59.880Z,22.30
2023-05-14T09:08:28.413Z,22.40
2023-05-14T09:10:56.494Z,22.30
2023-05-14T09:13:26.908Z,22.20
2023-05-14T09:15:57.176Z,22.20
2023-05-14T09:18:26.014Z,22.20
2023-05-14T09:20:54.450Z,22.20
2023-05-14T09:23:26.630Z,22.20
2023-05-14T09:25:54.765Z,22.30
2023-05-14T09:28:28.028Z,22.30
2023-05-14T09:30:56.554Z,22.40
2023-05-14T09:33:29.058Z,22.40
2023-05-14T09:36:00.199Z,22.50
2023-05-14T09:38:33.133Z,22.50
2023-05-14T09:41:01.862Z,22.50
2023-05-14T09:43:29.981Z,22.50
2023-05-14T09:45:58.060Z,22.50
2023-05-14T09:48:26.818Z,22.50
2023-05-14T09:50:54.944Z,22.50
2023-05-14T09:53:23.063Z,22.50
2023-05-14T09:55:52.595Z,22.50
2023-05-14T09:58:20.799Z,22.50
2023-05-14T10:00:49.181Z,22.50
2023-05-14T10:03:19.964Z,22.60
2023-05-14T10:05:50.236Z,22.80
2023-05-14T10:08:26.727Z,23.20
2023-05-14T10:10:56.996Z,23.50
2023-05-14T10:13:30.786Z,23.80
2023-05-14T10:16:06.173Z,24.00
2023-05-14T10:18:41.347Z,24.20
2023-05-14T10:21:11.639Z,24.40
2023-05-14T10:23:40.606Z,24.50
2023-05-14T10:26:11.854Z,24.70
2023-05-14T10:28:40.215Z,24.90
2023-05-14T10:31:10.803Z,24.90
2023-05-14T10:33:50.197Z,24.90
2023-05-14T10:36:18.998Z,24.90
2023-05-14T10:38:47.953Z,24.80
2023-05-14T10:41:18.675Z,24.70
2023-05-14T10:43:46.737Z,24.60
2023-05-14T10:46:15.701Z,24.70
2023-05-14T10:48:44.691Z,24.80
2023-05-14T10:51:13.997Z,24.90
2023-05-14T10:53:43.939Z,24.90
2023-05-14T10:56:13.074Z,24.90
2023-05-14T10:58:44.453Z,24.80
2023-05-14T11:01:14.218Z,24.60
2023-05-14T11:03:44.885Z,24.50
2023-05-14T11:06:14.987Z,24.50
2023-05-14T11:08:43.883Z,24.50
2023-05-14T11:11:12.352Z,24.50
2023-05-14T11:13:40.486Z,24.50
2023-05-14T11:18:41.953Z,24.40
2023-05-14T11:21:10.339Z,24.50
2023-05-14T11:23:38.578Z,24.50
2023-05-14T11:26:06.857Z,24.70
2023-05-14T11:28:35.678Z,24.90
2023-05-14T11:31:05.663Z,25.10
2023-05-14T11:33:35.192Z,25.60
2023-05-14T11:36:04.290Z,25.90
2023-05-14T11:38:32.372Z,26.10
2023-05-14T11:41:01.110Z,26.20
2023-05-14T11:43:30.785Z,26.10
2023-05-14T11:45:58.985Z,25.90
2023-05-14T11:48:27.400Z,25.60
2023-05-14T11:50:56.845Z,25.40
2023-05-14T11:53:28.545Z,25.10
2023-05-14T11:55:57.808Z,24.90
2023-05-14T11:58:26.624Z,24.70
2023-05-14T12:00:56.977Z,24.60
2023-05-14T12:03:26.878Z,24.50
2023-05-14T12:06:00.806Z,24.50
2023-05-14T12:08:30.206Z,24.50
2023-05-14T12:11:00.111Z,24.70
2023-05-14T12:13:28.950Z,24.90
2023-05-14T12:15:59.025Z,25.10
2023-05-14T12:18:28.506Z,25.30
2023-05-14T12:20:56.792Z,25.50
2023-05-14T12:23:30.647Z,25.70
2023-05-14T12:26:03.838Z,25.80
2023-05-14T12:28:32.948Z,25.90
2023-05-14T12:31:01.965Z,25.80
2023-05-14T12:33:30.066Z,25.60
2023-05-14T12:36:07.384Z,25.50
2023-05-14T12:38:49.743Z,25.30
2023-05-14T12:41:18.231Z,25.20
2023-05-14T12:43:48.633Z,25.20
2023-05-14T12:46:17.138Z,25.10
2023-05-14T12:48:45.311Z,25.10
2023-05-14T12:51:13.530Z,25.10
2023-05-14T12:53:41.732Z,25.00
2023-05-14T12:56:11.498Z,25.00
2023-05-14T12:58:39.677Z,25.10
2023-05-14T13:01:07.812Z,25.10
2023-05-14T13:03:36.007Z,25.20
2023-05-14T13:06:04.185Z,25.00
2023-05-14T13:08:32.277Z,24.80
2023-05-14T13:11:00.381Z,24.40
2023-05-14T13:13:30.057Z,24.10
2023-05-14T13:15:58.276Z,23.80
2023-05-14T13:18:27.694Z,23.60
2023-05-14T13:20:55.865Z,23.40
2023-05-14T13:23:24.357Z,23.30
2023-05-14T13:25:52.527Z,23.20
2023-05-14T13:28:20.637Z,23.10
2023-05-14T13:31:07.380Z,23.10
2023-05-14T13:33:37.143Z,23.00
2023-05-14T13:36:05.917Z,23.00
2023-05-14T13:38:34.150Z,23.00
2023-05-14T13:41:03.039Z,22.90
2023-05-14T13:43:31.916Z,22.90
2023-05-14T13:46:02.309Z,22.90
2023-05-14T13:48:31.035Z,22.90
2023-05-14T13:50:59.340Z,23.00
2023-05-14T13:53:30.533Z,23.20
2023-05-14T13:56:00.866Z,23.50
2023-05-14T13:58:29.440Z,23.80
2023-05-14T14:00:57.709Z,24.10
2023-05-14T14:03:27.149Z,24.30
2023-05-14T14:05:55.528Z,24.50
2023-05-14T14:08:24.517Z,24.60
2023-05-14T14:10:55.185Z,24.40
2023-05-14T14:13:24.400Z,23.80
2023-05-14T14:15:52.926Z,23.20
2023-05-14T14:18:21.142Z,22.50
2023-05-14T14:20:50.865Z,22.10
2023-05-14T14:23:19.583Z,21.60
2023-05-14T14:25:47.740Z,21.40
2023-05-14T14:28:15.875Z,21.10
2023-05-14T14:30:44.203Z,21.00
2023-05-14T14:33:12.531Z,20.80
2023-05-14T14:35:40.716Z,20.70
2023-05-14T14:38:10.168Z,20.50
2023-05-14T14:40:46.175Z,20.20
2023-05-14T14:43:14.389Z,19.80
2023-05-14T14:45:42.864Z,19.50
2023-05-14T14:48:25.103Z,19.30
2023-05-14T14:50:53.680Z,19.00
2023-05-14T14:53:23.810Z,18.80
2023-05-14T14:55:52.266Z,18.60
2023-05-14T14:58:21.365Z,18.50
2023-05-14T15:00:50.388Z,18.40
2023-05-14T15:03:19.965Z,18.40
2023-05-14T15:05:48.198Z,18.30
2023-05-14T15:08:16.577Z,18.30
2023-05-14T15:10:46.462Z,18.20
2023-05-14T15:13:14.772Z,18.10
2023-05-14T15:15:42.986Z,18.10
2023-05-14T15:18:11.397Z,18.10
2023-05-14T15:20:39.621Z,18.10
2023-05-14T15:23:08.167Z,18.20
2023-05-14T15:25:36.947Z,18.20
2023-05-14T15:28:06.813Z,18.30
2023-05-14T15:30:35.095Z,18.30
2023-05-14T15:33:03.409Z,18.40
2023-05-14T15:35:31.561Z,18.50
2023-05-14T15:37:59.807Z,18.60
2023-05-14T15:40:28.286Z,18.70
2023-05-14T15:42:56.420Z,18.80
2023-05-14T15:45:26.024Z,18.90
2023-05-14T15:47:54.166Z,18.90
2023-05-14T15:50:22.961Z,19.00
2023-05-14T15:52:51.312Z,19.00
2023-05-14T15:55:19.669Z,19.10
2023-05-14T15:57:47.786Z,19.10
2023-05-14T16:00:16.574Z,19.10
2023-05-14T16:02:46.142Z,19.10
2023-05-14T16:05:15.279Z,19.20
2023-05-14T16:07:43.984Z,19.20
2023-05-14T16:10:12.613Z,19.30
2023-05-14T16:12:40.729Z,19.30
2023-05-14T16:15:10.005Z,19.30
2023-05-14T16:17:38.145Z,19.30
2023-05-14T16:20:09.621Z,19.20
2023-05-14T16:22:37.690Z,19.20
2023-05-14T16:25:06.580Z,19.10
2023-05-14T16:27:35.435Z,19.10
2023-05-14T16:30:04.445Z,19.00
2023-05-14T16:32:32.625Z,19.00
2023-05-14T16:35:02.589Z,19.00
2023-05-14T16:37:32.581Z,19.00
2023-05-14T16:40:00.655Z,19.10
2023-05-14T16:42:28.731Z,19.10
2023-05-14T16:44:56.834Z,19.10
2023-05-14T16:47:25.059Z,19.20
2023-05-14T16:49:53.189Z,19.20
2023-05-14T16:52:21.319Z,19.20
2023-05-14T16:54:50.896Z,19.30
2023-05-14T16:57:19.552Z,19.30
2023-05-14T16:59:47.782Z,19.30
2023-05-14T17:02:16.029Z,19.20
2023-05-14T17:04:44.426Z,19.20
2023-05-14T17:07:12.704Z,19.20
2023-05-14T17:09:41.330Z,19.20
2023-05-14T17:12:13.034Z,19.10
2023-05-14T17:14:41.109Z,19.10
2023-05-14T17:17:09.215Z,19.00
2023-05-14T17:19:37.311Z,18.90
2023-05-14T17:22:07.258Z,18.90
2023-05-14T17:24:36.465Z,18.90
2023-05-14T17:27:05.018Z,18.90
2023-05-14T17:29:34.519Z,18.90
2023-05-14T17:32:03.564Z,18.80
2023-05-14T17:34:31.835Z,18.80
2023-05-14T17:37:00.840Z,18.80
2023-05-14T17:39:29.147Z,18.80
2023-05-14T17:41:57.243Z,18.70
2023-05-14T17:44:25.419Z,18.70
2023-05-14T17:46:54.963Z,18.70
2023-05-14T17:49:23.055Z,18.60
2023-05-14T17:51:51.136Z,18.60
2023-05-14T17:54:19.211Z,18.50
2023-05-14T17:56:48.139Z,18.50
2023-05-14T17:59:16.254Z,18.50
2023-05-14T18:01:44.393Z,18.50
2023-05-14T18:04:14.866Z,18.50
2023-05-14T18:06:43.055Z,18.50
2023-05-14T18:09:11.143Z,18.50
2023-05-14T18:11:39.248Z,18.40
2023-05-14T18:14:07.331Z,18.50
2023-05-14T18:16:35.896Z,18.40
2023-05-14T18:19:04.076Z,18.40
2023-05-14T18:21:33.622Z,18.40
2023-05-14T18:24:01.842Z,18.40
2023-05-14T18:26:31.280Z,18.40
2023-05-14T18:29:01.057Z,18.30
2023-05-14T18:31:29.264Z,18.30
2023-05-14T18:33:57.381Z,18.30
2023-05-14T18:36:25.488Z,18.30
2023-05-14T18:38:54.951Z,18.30
2023-05-14T18:41:23.564Z,18.20
2023-05-14T18:43:51.640Z,18.20
2023-05-14T18:46:19.877Z,18.20
2023-05-14T18:48:48.008Z,18.10
2023-05-14T18:51:16.092Z,18.10
2023-05-14T18:53:44.185Z,18.10
2023-05-14T18:56:13.774Z,18.10
2023-05-14T18:58:42.334Z,18.10
2023-05-14T19:01:10.523Z,18.00
2023-05-14T19:03:38.723Z,18.00
2023-05-14T19:06:07.534Z,18.10
2023-05-14T19:08:35.891Z,18.00
2023-05-14T19:11:04.523Z,18.00
2023-05-14T19:13:34.089Z,18.00
2023-05-14T19:16:02.233Z,18.00
2023-05-14T19:18:30.462Z,18.00
2023-05-14T19:20:59.121Z,18.00
2023-05-14T19:23:27.244Z,17.90
2023-05-14T19:25:55.333Z,18.00
2023-05-14T19:28:23.493Z,17.90
2023-05-14T19:30:53.404Z,17.90
2023-05-14T19:33:21.663Z,17.90
2023-05-14T19:35:49.718Z,17.80
2023-05-14T19:38:17.828Z,17.80
2023-05-14T19:40:45.921Z,17.80
2023-05-14T19:43:14.026Z,17.80
2023-05-14T19:45:42.817Z,17.70
2023-05-14T19:48:13.733Z,17.70
2023-05-14T19:50:41.888Z,17.60
2023-05-14T19:53:10.060Z,17.60
2023-05-14T19:55:38.200Z,17.60
2023-05-14T19:58:06.315Z,17.60
2023-05-14T20:00:34.470Z,17.50
2023-05-14T20:03:02.724Z,17.50
2023-05-14T20:05:34.255Z,17.40
2023-05-14T20:08:03.850Z,17.40
2023-05-14T20:10:31.926Z,17.30
2023-05-14T20:13:00.029Z,17.40
2023-05-14T20:15:28.294Z,17.40
2023-05-14T20:17:56.477Z,17.30
2023-05-14T20:20:25.727Z,17.30
2023-05-14T20:22:55.484Z,17.20
2023-05-14T20:25:25.732Z,17.20
2023-05-14T20:27:54.730Z,17.10
2023-05-14T20:30:24.037Z,17.10
2023-05-14T20:32:52.463Z,17.10
2023-05-14T20:35:20.650Z,17.00
2023-05-14T20:37:49.491Z,17.00
2023-05-14T20:40:19.327Z,16.90
2023-05-14T20:42:47.463Z,16.90
2023-05-14T20:45:15.721Z,16.90
2023-05-14T20:47:43.856Z,16.80
2023-05-14T20:50:13.739Z,16.80
2023-05-14T20:52:41.965Z,16.70
2023-05-14T20:55:11.021Z,16.60
2023-05-14T20:57:40.964Z,16.60
2023-05-14T21:00:13.242Z,16.50
2023-05-14T21:02:41.577Z,16.40
2023-05-14T21:05:10.204Z,16.30
2023-05-14T21:07:39.458Z,16.30
2023-05-14T21:10:09.162Z,16.20
2023-05-14T21:12:37.491Z,16.20
2023-05-14T21:15:08.324Z,16.20
2023-05-14T21:17:36.499Z,16.10
2023-05-14T21:20:04.901Z,16.10
2023-05-14T21:22:33.061Z,16.10
2023-05-14T21:25:01.172Z,16.10
2023-05-14T21:27:29.620Z,16.10
2023-05-14T21:29:57.783Z,16.10
2023-05-14T21:32:27.671Z,16.00
2023-05-14T21:34:56.181Z,16.00
2023-05-14T21:37:24.337Z,16.00
2023-05-14T21:39:52.679Z,15.90
2023-05-14T21:42:21.477Z,15.90
2023-05-14T21:44:49.561Z,15.90
2023-05-14T21:47:17.766Z,15.80
2023-05-14T21:49:47.301Z,15.70
2023-05-14T21:52:15.452Z,15.60
2023-05-14T21:54:43.553Z,15.60
2023-05-14T21:57:11.699Z,15.50
2023-05-14T21:59:39.804Z,15.40
2023-05-14T22:02:08.900Z,15.40
2023-05-14T22:04:37.034Z,15.30
2023-05-14T22:07:06.641Z,15.30
2023-05-14T22:09:34.846Z,15.20
2023-05-14T22:12:02.920Z,15.20
2023-05-14T22:14:31.016Z,15.10
2023-05-14T22:16:59.302Z,15.00
2023-05-14T22:19:27.931Z,15.00
2023-05-14T22:21:56.097Z,14.90
2023-05-14T22:24:25.583Z,14.90
2023-05-14T22:26:53.677Z,14.80
2023-05-14T22:29:21.746Z,14.80
2023-05-14T22:31:49.894Z,14.80
2023-05-14T22:34:19.283Z,14.70
2023-05-14T22:36:47.426Z,14.60
2023-05-14T22:39:15.790Z,14.60
2023-05-14T22:41:45.808Z,14.60
2023-05-14T22:44:13.982Z,14.60
2023-05-14T22:46:42.757Z,14.50
2023-05-14T22:49:10.951Z,14.50
2023-05-14T22:51:39.063Z,14.40
2023-05-14T22:54:07.212Z,14.30
2023-05-14T22:56:35.544Z,14.30
2023-05-14T22:59:05.086Z,14.20
2023-05-14T23:01:33.264Z,14.20
2023-05-14T23:04:01.481Z,14.20
2023-05-14T23:06:30.733Z,14.10
2023-05-14T23:08:59.030Z,14.00
2023-05-14T23:11:27.488Z,14.00
2023-05-14T23:13:55.790Z,14.00
2023-05-14T23:16:25.964Z,13.90
2023-05-14T23:18:54.349Z,13.90
2023-05-14T23:21:23.134Z,13.90
2023-05-14T23:23:51.208Z,13.90
2023-05-14T23:26:19.370Z,13.90
2023-05-14T23:28:47.838Z,13.90
2023-05-14T23:31:15.997Z,13.90
2023-05-14T23:33:46.766Z,13.80
2023-05-14T23:36:14.930Z,13.80
2023-05-14T23:38:43.122Z,13.80
2023-05-14T23:41:11.291Z,13.70
2023-05-14T23:43:39.433Z,13.60
2023-05-14T23:46:08.740Z,13.60
2023-05-14T23:48:37.915Z,13.50
2023-05-14T23:51:07.526Z,13.50
2023-05-14T23:53:35.662Z,13.40
2023-05-14T23:56:03.758Z,13.40
2023-05-14T23:58:32.960Z,13.40
